Terminal Aerodrome Forecast
Issued by NWS

Home | Current Version | Previous Version | Text Only | Print | Product List | Glossary On
Versions: 1 2 3 4 5 6 7 8 9 10 11 12 13 14
000
FTUS42 KMLB 242300
TAFSUA
TAF
KSUA 242335Z 2500/2524 13010KT P6SM VCSH SCT050 BKN060 BKN120
     FM250200 20004KT P6SM SCT100 BKN250
     FM251500 24006KT P6SM SCT030
     FM251700 13010KT P6SM VCTS SCT035CB BKN080=

USA.gov is the U.S. government's official web portal to all federal, state and local government web resources and services.